createdAt,value
2017-10-17T00:02:52.483Z,13.9
2017-10-17T00:13:06.727Z,13.5
2017-10-17T00:23:22.530Z,13.6
2017-10-17T00:33:37.848Z,14
2017-10-17T00:43:51.593Z,14
2017-10-17T00:54:06.127Z,13.8
2017-10-17T01:04:20.516Z,13.6
2017-10-17T01:14:36.190Z,13.4
2017-10-17T01:24:49.993Z,13.3
2017-10-17T01:35:05.336Z,13.2
2017-10-17T01:45:20.676Z,13.2
2017-10-17T01:55:35.011Z,13.2
2017-10-17T02:05:49.749Z,13
2017-10-17T02:16:04.301Z,13
2017-10-17T02:26:19.932Z,13.3
2017-10-17T02:36:35.456Z,13.2
2017-10-17T02:46:50.805Z,13.3
2017-10-17T02:57:05.582Z,13.1
2017-10-17T03:07:21.733Z,12.8
2017-10-17T03:17:35.317Z,12.3
2017-10-17T03:27:49.365Z,12.1
2017-10-17T03:38:04.738Z,11.8
2017-10-17T03:48:18.883Z,12.3
2017-10-17T03:58:33.907Z,12.7
2017-10-17T04:08:48.066Z,12.9
2017-10-17T04:19:03.553Z,13
2017-10-17T04:29:18.844Z,13.2
2017-10-17T04:39:34.358Z,13.2
2017-10-17T04:49:49.929Z,13
2017-10-17T05:00:05.075Z,13.2
2017-10-17T05:10:18.674Z,13.4
2017-10-17T05:20:34.080Z,13.6
2017-10-17T05:30:49.077Z,13.6
2017-10-17T05:41:03.837Z,13.5
2017-10-17T05:51:19.204Z,13.5
2017-10-17T06:01:34.242Z,13.4
2017-10-17T06:11:48.796Z,13.2
2017-10-17T06:22:02.826Z,13
2017-10-17T06:32:18.086Z,13.2
2017-10-17T06:42:33.047Z,13.5
2017-10-17T06:52:48.290Z,13.7
2017-10-17T07:03:03.885Z,13.9
2017-10-17T07:13:18.290Z,14.2
2017-10-17T07:23:33.240Z,14.3
2017-10-17T07:33:48.714Z,14.3
2017-10-17T07:44:02.815Z,14.3
2017-10-17T07:54:17.837Z,14.5
2017-10-17T08:04:31.738Z,14.7
2017-10-17T08:14:46.110Z,14.9
2017-10-17T08:25:00.479Z,15.3
2017-10-17T08:35:15.187Z,15.6
2017-10-17T08:45:29.477Z,16.1
2017-10-17T08:55:44.767Z,16.3
2017-10-17T09:05:58.486Z,16.6
2017-10-17T09:16:14.375Z,16.7
2017-10-17T09:26:29.763Z,16.9
2017-10-17T09:36:43.911Z,17.3
2017-10-17T09:46:58.610Z,17.3
2017-10-17T09:57:13.045Z,17.2
2017-10-17T10:07:27.976Z,17.2
2017-10-17T10:17:42.555Z,17.6
2017-10-17T10:27:57.310Z,18
2017-10-17T10:38:11.885Z,17.9
2017-10-17T10:48:27.044Z,17.7
2017-10-17T10:58:42.928Z,17.8
2017-10-17T11:08:58.045Z,17.9
2017-10-17T11:19:12.512Z,18.2
2017-10-17T11:29:27.197Z,18.6
2017-10-17T11:39:42.686Z,18.2
2017-10-17T11:49:58.194Z,18.5
2017-10-17T12:00:12.492Z,18.3
2017-10-17T12:10:27.841Z,18.7
2017-10-17T12:20:43.001Z,18.5
2017-10-17T12:30:58.573Z,18.4
2017-10-17T12:41:14.231Z,18.5
2017-10-17T12:51:29.739Z,18.6
2017-10-17T13:01:45.343Z,18.7
2017-10-17T13:12:01.173Z,18.7
2017-10-17T13:22:15.832Z,18.6
2017-10-17T13:32:29.982Z,18.6
2017-10-17T13:42:45.069Z,18.4
2017-10-17T13:52:59.417Z,18.2
2017-10-17T14:03:13.329Z,18.1
2017-10-17T14:13:27.550Z,18
2017-10-17T14:23:42.616Z,17.8
2017-10-17T14:33:57.527Z,17.6
2017-10-17T14:44:12.264Z,17.5
2017-10-17T14:54:28.178Z,17.4
2017-10-17T15:04:43.817Z,16.9
2017-10-17T15:14:58.014Z,16.5
2017-10-17T15:25:13.106Z,16
2017-10-17T15:35:28.130Z,16.2
2017-10-17T15:45:43.935Z,16.1
2017-10-17T15:55:58.921Z,16
2017-10-17T16:06:12.728Z,16
2017-10-17T16:16:28.689Z,15.7
2017-10-17T16:26:42.753Z,15.4
2017-10-17T16:36:57.710Z,15
2017-10-17T16:47:12.075Z,14.8
2017-10-17T16:57:26.190Z,14.6
2017-10-17T17:07:40.503Z,14.4
2017-10-17T17:17:55.482Z,14.1
2017-10-17T17:28:10.761Z,14.4
2017-10-17T17:38:24.447Z,14.2
2017-10-17T17:48:39.245Z,14.1
2017-10-17T17:58:54.450Z,13.8
2017-10-17T18:09:09.324Z,13.3
2017-10-17T18:19:25.084Z,13.5
2017-10-17T18:29:40.610Z,13.5
2017-10-17T18:39:54.283Z,13.1
2017-10-17T18:50:09.658Z,12.8
2017-10-17T19:00:25.198Z,12.4
2017-10-17T19:10:40.607Z,12.2
2017-10-17T19:20:54.856Z,13
2017-10-17T19:31:10.140Z,12.9
2017-10-17T19:41:24.048Z,13
2017-10-17T19:51:37.608Z,12.5
2017-10-17T20:01:52.131Z,12.1
2017-10-17T20:12:07.279Z,11.9
2017-10-17T20:22:22.593Z,11.8
2017-10-17T20:32:36.838Z,11.9
2017-10-17T20:42:50.579Z,12
2017-10-17T20:53:05.087Z,11.6
2017-10-17T21:03:19.251Z,11.7
2017-10-17T21:13:35.087Z,11.2
2017-10-17T21:23:48.601Z,11
2017-10-17T21:34:03.846Z,10.9
2017-10-17T21:44:18.910Z,11.2
2017-10-17T21:54:33.929Z,11
2017-10-17T22:04:48.606Z,10.7
2017-10-17T22:15:02.706Z,10.4
2017-10-17T22:25:17.733Z,11
2017-10-17T22:35:33.810Z,10.7
2017-10-17T22:45:46.966Z,10.4
2017-10-17T22:56:01.450Z,10.2
2017-10-17T23:06:15.895Z,10
2017-10-17T23:16:30.824Z,10.3
2017-10-17T23:26:45.912Z,10.3
2017-10-17T23:37:00.512Z,10.3
2017-10-17T23:47:14.522Z,10.4
2017-10-17T23:57:28.696Z,10.3
